sensor_id;sensor_type;location;lat;lon;timestamp;temperature;humidity
73112;HTU21D;61301;51.956;5.876;2023-07-13T00:01:25;22.07;47.54
73112;HTU21D;61301;51.956;5.876;2023-07-13T00:03:52;22.10;47.39
73112;HTU21D;61301;51.956;5.876;2023-07-13T00:06:18;22.08;47.57
73112;HTU21D;61301;51.956;5.876;2023-07-13T00:08:45;22.06;47.52
73112;HTU21D;61301;51.956;5.876;2023-07-13T00:11:12;22.05;47.45
73112;HTU21D;61301;51.956;5.876;2023-07-13T00:13:38;22.04;47.41
73112;HTU21D;61301;51.956;5.876;2023-07-13T00:16:05;22.02;47.41
73112;HTU21D;61301;51.956;5.876;2023-07-13T00:18:31;21.96;47.47
73112;HTU21D;61301;51.956;5.876;2023-07-13T00:20:57;21.94;47.59
73112;HTU21D;61301;51.956;5.876;2023-07-13T00:23:31;21.91;48.01
73112;HTU21D;61301;51.956;5.876;2023-07-13T00:26:00;21.88;48.31
73112;HTU21D;61301;51.956;5.876;2023-07-13T00:28:25;21.82;48.45
73112;HTU21D;61301;51.956;5.876;2023-07-13T00:30:51;21.81;48.39
73112;HTU21D;61301;51.956;5.876;2023-07-13T00:33:17;21.80;48.35
73112;HTU21D;61301;51.956;5.876;2023-07-13T00:35:43;21.80;48.47
73112;HTU21D;61301;51.956;5.876;2023-07-13T00:38:09;21.80;48.37
73112;HTU21D;61301;51.956;5.876;2023-07-13T00:40:35;21.72;48.64
73112;HTU21D;61301;51.956;5.876;2023-07-13T00:43:01;21.66;48.63
73112;HTU21D;61301;51.956;5.876;2023-07-13T00:47:54;21.58;49.39
73112;HTU21D;61301;51.956;5.876;2023-07-13T00:50:20;21.52;49.36
73112;HTU21D;61301;51.956;5.876;2023-07-13T00:52:49;21.53;49.20
73112;HTU21D;61301;51.956;5.876;2023-07-13T00:55:16;21.47;49.47
73112;HTU21D;61301;51.956;5.876;2023-07-13T00:57:43;21.48;49.73
73112;HTU21D;61301;51.956;5.876;2023-07-13T01:00:09;21.43;49.80
73112;HTU21D;61301;51.956;5.876;2023-07-13T01:02:37;21.35;50.04
73112;HTU21D;61301;51.956;5.876;2023-07-13T01:05:10;21.33;49.80
73112;HTU21D;61301;51.956;5.876;2023-07-13T01:07:36;21.36;49.85
73112;HTU21D;61301;51.956;5.876;2023-07-13T01:10:02;21.36;49.91
73112;HTU21D;61301;51.956;5.876;2023-07-13T01:12:28;21.37;49.91
73112;HTU21D;61301;51.956;5.876;2023-07-13T01:14:58;21.36;49.98
73112;HTU21D;61301;51.956;5.876;2023-07-13T01:17:26;21.37;49.75
73112;HTU21D;61301;51.956;5.876;2023-07-13T01:19:52;21.38;49.71
73112;HTU21D;61301;51.956;5.876;2023-07-13T01:22:18;21.34;49.71
73112;HTU21D;61301;51.956;5.876;2023-07-13T01:24:47;21.30;49.86
73112;HTU21D;61301;51.956;5.876;2023-07-13T01:27:16;21.24;50.03
73112;HTU21D;61301;51.956;5.876;2023-07-13T01:29:43;21.19;50.41
73112;HTU21D;61301;51.956;5.876;2023-07-13T01:32:10;21.09;50.63
73112;HTU21D;61301;51.956;5.876;2023-07-13T01:34:36;21.03;50.79
73112;HTU21D;61301;51.956;5.876;2023-07-13T01:37:03;21.02;50.59
73112;HTU21D;61301;51.956;5.876;2023-07-13T01:39:29;21.06;50.52
73112;HTU21D;61301;51.956;5.876;2023-07-13T01:41:55;20.91;51.11
73112;HTU21D;61301;51.956;5.876;2023-07-13T01:44:20;20.85;51.38
73112;HTU21D;61301;51.956;5.876;2023-07-13T01:46:46;20.73;51.97
73112;HTU21D;61301;51.956;5.876;2023-07-13T01:49:12;20.66;52.22
73112;HTU21D;61301;51.956;5.876;2023-07-13T01:51:38;20.56;52.58
73112;HTU21D;61301;51.956;5.876;2023-07-13T01:54:04;20.46;52.78
73112;HTU21D;61301;51.956;5.876;2023-07-13T01:56:30;20.39;53.14
73112;HTU21D;61301;51.956;5.876;2023-07-13T01:58:56;20.34;53.40
73112;HTU21D;61301;51.956;5.876;2023-07-13T02:01:22;20.27;53.42
73112;HTU21D;61301;51.956;5.876;2023-07-13T02:03:48;20.18;53.55
73112;HTU21D;61301;51.956;5.876;2023-07-13T02:06:14;20.26;53.56
73112;HTU21D;61301;51.956;5.876;2023-07-13T02:08:40;20.22;53.86
73112;HTU21D;61301;51.956;5.876;2023-07-13T02:11:06;20.19;53.91
73112;HTU21D;61301;51.956;5.876;2023-07-13T02:13:31;20.24;53.79
73112;HTU21D;61301;51.956;5.876;2023-07-13T02:15:57;20.21;53.93
73112;HTU21D;61301;51.956;5.876;2023-07-13T02:18:23;20.20;54.00
73112;HTU21D;61301;51.956;5.876;2023-07-13T02:20:49;20.19;54.03
73112;HTU21D;61301;51.956;5.876;2023-07-13T02:23:15;20.24;53.91
73112;HTU21D;61301;51.956;5.876;2023-07-13T02:25:40;20.26;53.78
73112;HTU21D;61301;51.956;5.876;2023-07-13T02:28:08;20.18;54.13
73112;HTU21D;61301;51.956;5.876;2023-07-13T02:30:34;20.16;54.19
73112;HTU21D;61301;51.956;5.876;2023-07-13T02:33:00;20.15;54.30
73112;HTU21D;61301;51.956;5.876;2023-07-13T02:35:26;20.16;54.19
73112;HTU21D;61301;51.956;5.876;2023-07-13T02:37:52;20.10;54.42
73112;HTU21D;61301;51.956;5.876;2023-07-13T02:40:17;20.15;54.28
73112;HTU21D;61301;51.956;5.876;2023-07-13T02:42:43;20.17;54.26
73112;HTU21D;61301;51.956;5.876;2023-07-13T02:45:09;20.19;54.18
73112;HTU21D;61301;51.956;5.876;2023-07-13T02:47:35;20.25;53.93
73112;HTU21D;61301;51.956;5.876;2023-07-13T02:50:02;20.22;54.01
73112;HTU21D;61301;51.956;5.876;2023-07-13T02:52:28;20.25;53.93
73112;HTU21D;61301;51.956;5.876;2023-07-13T02:54:54;20.28;53.95
73112;HTU21D;61301;51.956;5.876;2023-07-13T02:57:20;20.28;53.84
73112;HTU21D;61301;51.956;5.876;2023-07-13T02:59:46;20.32;53.79
73112;HTU21D;61301;51.956;5.876;2023-07-13T03:02:12;20.32;53.75
73112;HTU21D;61301;51.956;5.876;2023-07-13T03:04:38;20.20;54.28
73112;HTU21D;61301;51.956;5.876;2023-07-13T03:07:07;20.12;54.46
73112;HTU21D;61301;51.956;5.876;2023-07-13T03:09:36;20.09;55.00
73112;HTU21D;61301;51.956;5.876;2023-07-13T03:12:04;20.05;54.94
73112;HTU21D;61301;51.956;5.876;2023-07-13T03:14:31;20.02;54.93
73112;HTU21D;61301;51.956;5.876;2023-07-13T03:16:59;19.97;55.12
73112;HTU21D;61301;51.956;5.876;2023-07-13T03:19:28;19.92;55.41
73112;HTU21D;61301;51.956;5.876;2023-07-13T03:21:54;19.98;55.11
73112;HTU21D;61301;51.956;5.876;2023-07-13T03:24:21;19.92;55.40
73112;HTU21D;61301;51.956;5.876;2023-07-13T03:26:49;19.96;55.16
73112;HTU21D;61301;51.956;5.876;2023-07-13T03:29:15;20.01;55.14
73112;HTU21D;61301;51.956;5.876;2023-07-13T03:31:42;20.01;55.09
73112;HTU21D;61301;51.956;5.876;2023-07-13T03:34:07;19.99;55.15
73112;HTU21D;61301;51.956;5.876;2023-07-13T03:36:35;19.98;55.00
73112;HTU21D;61301;51.956;5.876;2023-07-13T03:39:04;19.95;55.34
73112;HTU21D;61301;51.956;5.876;2023-07-13T03:41:47;19.98;55.13
73112;HTU21D;61301;51.956;5.876;2023-07-13T03:44:13;19.94;55.35
73112;HTU21D;61301;51.956;5.876;2023-07-13T03:46:39;19.92;55.25
73112;HTU21D;61301;51.956;5.876;2023-07-13T03:49:05;19.90;55.29
73112;HTU21D;61301;51.956;5.876;2023-07-13T03:51:32;19.89;55.36
73112;HTU21D;61301;51.956;5.876;2023-07-13T03:54:00;19.91;55.18
73112;HTU21D;61301;51.956;5.876;2023-07-13T03:56:25;19.95;55.15
73112;HTU21D;61301;51.956;5.876;2023-07-13T03:58:52;19.92;55.43
73112;HTU21D;61301;51.956;5.876;2023-07-13T04:01:22;19.92;55.66
73112;HTU21D;61301;51.956;5.876;2023-07-13T04:03:48;19.97;55.38
73112;HTU21D;61301;51.956;5.876;2023-07-13T04:06:16;20.00;55.30
73112;HTU21D;61301;51.956;5.876;2023-07-13T04:08:47;20.00;55.44
73112;HTU21D;61301;51.956;5.876;2023-07-13T04:11:14;19.96;55.70
73112;HTU21D;61301;51.956;5.876;2023-07-13T04:13:40;19.86;56.26
73112;HTU21D;61301;51.956;5.876;2023-07-13T04:16:06;19.83;56.47
73112;HTU21D;61301;51.956;5.876;2023-07-13T04:18:32;19.81;56.69
73112;HTU21D;61301;51.956;5.876;2023-07-13T04:20:58;19.83;56.60
73112;HTU21D;61301;51.956;5.876;2023-07-13T04:23:24;19.88;56.69
73112;HTU21D;61301;51.956;5.876;2023-07-13T04:25:51;19.82;56.92
73112;HTU21D;61301;51.956;5.876;2023-07-13T04:28:19;19.89;56.70
73112;HTU21D;61301;51.956;5.876;2023-07-13T04:30:45;19.94;56.80
73112;HTU21D;61301;51.956;5.876;2023-07-13T04:33:11;19.91;56.93
73112;HTU21D;61301;51.956;5.876;2023-07-13T04:35:37;19.90;57.06
73112;HTU21D;61301;51.956;5.876;2023-07-13T04:38:03;19.95;57.07
73112;HTU21D;61301;51.956;5.876;2023-07-13T04:40:29;19.98;56.96
73112;HTU21D;61301;51.956;5.876;2023-07-13T04:42:55;19.99;56.98
73112;HTU21D;61301;51.956;5.876;2023-07-13T04:45:22;20.00;56.97
73112;HTU21D;61301;51.956;5.876;2023-07-13T04:47:49;20.05;57.00
73112;HTU21D;61301;51.956;5.876;2023-07-13T04:50:15;20.10;56.97
73112;HTU21D;61301;51.956;5.876;2023-07-13T04:52:45;20.10;56.94
73112;HTU21D;61301;51.956;5.876;2023-07-13T04:55:11;20.07;57.26
73112;HTU21D;61301;51.956;5.876;2023-07-13T04:57:37;20.03;57.35
73112;HTU21D;61301;51.956;5.876;2023-07-13T05:00:03;20.04;57.58
73112;HTU21D;61301;51.956;5.876;2023-07-13T05:02:31;20.11;57.34
73112;HTU21D;61301;51.956;5.876;2023-07-13T05:04:58;20.06;57.71
73112;HTU21D;61301;51.956;5.876;2023-07-13T05:07:25;20.10;57.72
73112;HTU21D;61301;51.956;5.876;2023-07-13T05:09:51;20.13;57.90
73112;HTU21D;61301;51.956;5.876;2023-07-13T05:12:16;20.07;58.18
73112;HTU21D;61301;51.956;5.876;2023-07-13T05:14:42;20.21;57.84
73112;HTU21D;61301;51.956;5.876;2023-07-13T05:17:08;20.26;58.01
73112;HTU21D;61301;51.956;5.876;2023-07-13T05:19:35;20.21;58.25
73112;HTU21D;61301;51.956;5.876;2023-07-13T05:22:00;20.21;58.25
73112;HTU21D;61301;51.956;5.876;2023-07-13T05:24:28;20.16;58.71
73112;HTU21D;61301;51.956;5.876;2023-07-13T05:26:54;20.14;58.95
73112;HTU21D;61301;51.956;5.876;2023-07-13T05:29:20;20.24;58.66
73112;HTU21D;61301;51.956;5.876;2023-07-13T05:31:46;20.36;58.35
73112;HTU21D;61301;51.956;5.876;2023-07-13T05:34:12;20.41;58.51
73112;HTU21D;61301;51.956;5.876;2023-07-13T05:36:41;20.42;58.41
73112;HTU21D;61301;51.956;5.876;2023-07-13T05:39:07;20.45;58.46
73112;HTU21D;61301;51.956;5.876;2023-07-13T05:41:33;20.43;58.91
73112;HTU21D;61301;51.956;5.876;2023-07-13T05:43:59;20.32;59.25
73112;HTU21D;61301;51.956;5.876;2023-07-13T05:46:25;20.44;58.86
73112;HTU21D;61301;51.956;5.876;2023-07-13T05:48:51;20.40;59.28
73112;HTU21D;61301;51.956;5.876;2023-07-13T05:51:16;20.49;59.07
73112;HTU21D;61301;51.956;5.876;2023-07-13T05:53:42;20.68;58.57
73112;HTU21D;61301;51.956;5.876;2023-07-13T05:56:08;20.81;58.29
73112;HTU21D;61301;51.956;5.876;2023-07-13T05:58:34;20.91;58.25
73112;HTU21D;61301;51.956;5.876;2023-07-13T06:01:02;21.06;57.94
73112;HTU21D;61301;51.956;5.876;2023-07-13T06:03:27;21.08;58.16
73112;HTU21D;61301;51.956;5.876;2023-07-13T06:05:53;21.19;58.14
73112;HTU21D;61301;51.956;5.876;2023-07-13T06:08:19;21.25;57.93
73112;HTU21D;61301;51.956;5.876;2023-07-13T06:10:45;21.21;58.22
73112;HTU21D;61301;51.956;5.876;2023-07-13T06:13:11;21.35;58.05
73112;HTU21D;61301;51.956;5.876;2023-07-13T06:15:36;21.32;58.22
73112;HTU21D;61301;51.956;5.876;2023-07-13T06:18:02;21.40;57.87
73112;HTU21D;61301;51.956;5.876;2023-07-13T06:20:28;21.50;57.54
73112;HTU21D;61301;51.956;5.876;2023-07-13T06:22:54;21.54;57.48
73112;HTU21D;61301;51.956;5.876;2023-07-13T06:25:20;21.53;57.78
73112;HTU21D;61301;51.956;5.876;2023-07-13T06:27:46;21.64;57.48
73112;HTU21D;61301;51.956;5.876;2023-07-13T06:30:12;21.79;57.27
73112;HTU21D;61301;51.956;5.876;2023-07-13T06:32:38;21.92;56.93
73112;HTU21D;61301;51.956;5.876;2023-07-13T06:35:04;22.06;56.62
73112;HTU21D;61301;51.956;5.876;2023-07-13T06:37:30;22.17;56.38
73112;HTU21D;61301;51.956;5.876;2023-07-13T06:39:56;22.22;56.45
73112;HTU21D;61301;51.956;5.876;2023-07-13T06:42:21;22.35;56.29
73112;HTU21D;61301;51.956;5.876;2023-07-13T06:44:47;22.34;56.19
73112;HTU21D;61301;51.956;5.876;2023-07-13T06:47:13;22.16;56.69
73112;HTU21D;61301;51.956;5.876;2023-07-13T06:49:39;22.14;56.86
73112;HTU21D;61301;51.956;5.876;2023-07-13T06:52:05;22.21;56.74
73112;HTU21D;61301;51.956;5.876;2023-07-13T06:54:31;22.34;56.45
73112;HTU21D;61301;51.956;5.876;2023-07-13T06:56:56;22.34;56.79
73112;HTU21D;61301;51.956;5.876;2023-07-13T06:59:22;22.39;56.61
73112;HTU21D;61301;51.956;5.876;2023-07-13T07:01:48;22.49;56.62
73112;HTU21D;61301;51.956;5.876;2023-07-13T07:04:14;22.52;56.36
73112;HTU21D;61301;51.956;5.876;2023-07-13T07:06:40;22.63;56.15
73112;HTU21D;61301;51.956;5.876;2023-07-13T07:09:05;22.79;56.12
73112;HTU21D;61301;51.956;5.876;2023-07-13T07:11:31;23.01;55.48
73112;HTU21D;61301;51.956;5.876;2023-07-13T07:13:57;23.13;54.95
73112;HTU21D;61301;51.956;5.876;2023-07-13T07:16:23;23.13;55.08
73112;HTU21D;61301;51.956;5.876;2023-07-13T07:18:49;23.07;55.33
73112;HTU21D;61301;51.956;5.876;2023-07-13T07:21:15;23.18;55.00
73112;HTU21D;61301;51.956;5.876;2023-07-13T07:23:41;23.23;54.42
73112;HTU21D;61301;51.956;5.876;2023-07-13T07:26:07;23.27;54.54
73112;HTU21D;61301;51.956;5.876;2023-07-13T07:28:35;23.46;54.39
73112;HTU21D;61301;51.956;5.876;2023-07-13T07:31:01;23.56;53.90
73112;HTU21D;61301;51.956;5.876;2023-07-13T07:33:27;23.64;53.82
73112;HTU21D;61301;51.956;5.876;2023-07-13T07:35:53;23.69;53.64
73112;HTU21D;61301;51.956;5.876;2023-07-13T07:38:19;23.59;53.50
73112;HTU21D;61301;51.956;5.876;2023-07-13T07:40:44;23.54;53.63
73112;HTU21D;61301;51.956;5.876;2023-07-13T07:43:11;23.57;53.68
73112;HTU21D;61301;51.956;5.876;2023-07-13T07:45:37;23.58;53.88
73112;HTU21D;61301;51.956;5.876;2023-07-13T07:48:03;23.59;53.45
73112;HTU21D;61301;51.956;5.876;2023-07-13T07:50:30;23.59;53.62
73112;HTU21D;61301;51.956;5.876;2023-07-13T07:52:56;23.61;53.51
73112;HTU21D;61301;51.956;5.876;2023-07-13T07:55:22;23.60;53.93
73112;HTU21D;61301;51.956;5.876;2023-07-13T07:57:48;23.74;53.49
73112;HTU21D;61301;51.956;5.876;2023-07-13T08:00:14;23.94;52.98
73112;HTU21D;61301;51.956;5.876;2023-07-13T08:02:40;23.89;53.05
73112;HTU21D;61301;51.956;5.876;2023-07-13T08:05:07;24.03;53.01
73112;HTU21D;61301;51.956;5.876;2023-07-13T08:07:33;24.01;52.47
73112;HTU21D;61301;51.956;5.876;2023-07-13T08:09:58;24.15;52.25
73112;HTU21D;61301;51.956;5.876;2023-07-13T08:12:24;24.43;51.90
73112;HTU21D;61301;51.956;5.876;2023-07-13T08:14:50;24.64;51.49
73112;HTU21D;61301;51.956;5.876;2023-07-13T08:17:22;24.70;51.05
73112;HTU21D;61301;51.956;5.876;2023-07-13T08:19:48;24.70;51.27
73112;HTU21D;61301;51.956;5.876;2023-07-13T08:22:14;24.76;51.33
73112;HTU21D;61301;51.956;5.876;2023-07-13T08:24:40;24.72;50.76
73112;HTU21D;61301;51.956;5.876;2023-07-13T08:27:08;24.78;50.26
73112;HTU21D;61301;51.956;5.876;2023-07-13T08:29:34;24.68;50.30
73112;HTU21D;61301;51.956;5.876;2023-07-13T08:32:00;24.69;50.88
73112;HTU21D;61301;51.956;5.876;2023-07-13T08:34:26;24.79;51.01
73112;HTU21D;61301;51.956;5.876;2023-07-13T08:36:51;24.90;51.27
73112;HTU21D;61301;51.956;5.876;2023-07-13T08:39:17;24.98;49.91
73112;HTU21D;61301;51.956;5.876;2023-07-13T08:41:51;25.07;49.97
73112;HTU21D;61301;51.956;5.876;2023-07-13T08:44:24;25.53;49.44
73112;HTU21D;61301;51.956;5.876;2023-07-13T08:46:51;25.87;48.38
73112;HTU21D;61301;51.956;5.876;2023-07-13T08:49:18;25.77;48.53
73112;HTU21D;61301;51.956;5.876;2023-07-13T08:51:57;25.83;48.17
73112;HTU21D;61301;51.956;5.876;2023-07-13T08:54:37;25.63;48.73
73112;HTU21D;61301;51.956;5.876;2023-07-13T08:57:14;25.51;48.37
73112;HTU21D;61301;51.956;5.876;2023-07-13T08:59:40;25.29;48.07
73112;HTU21D;61301;51.956;5.876;2023-07-13T09:04:34;25.17;47.67
73112;HTU21D;61301;51.956;5.876;2023-07-13T09:07:13;25.42;45.98
73112;HTU21D;61301;51.956;5.876;2023-07-13T09:14:57;25.79;44.93
73112;HTU21D;61301;51.956;5.876;2023-07-13T09:17:25;26.04;45.26
73112;HTU21D;61301;51.956;5.876;2023-07-13T09:22:47;25.96;44.42
73112;HTU21D;61301;51.956;5.876;2023-07-13T09:25:35;26.01;44.22
73112;HTU21D;61301;51.956;5.876;2023-07-13T09:31:07;26.06;44.12
73112;HTU21D;61301;51.956;5.876;2023-07-13T09:33:38;25.82;44.51
73112;HTU21D;61301;51.956;5.876;2023-07-13T09:38:42;25.36;46.89
73112;HTU21D;61301;51.956;5.876;2023-07-13T09:43:37;25.04;48.25
73112;HTU21D;61301;51.956;5.876;2023-07-13T09:46:02;25.00;49.27
73112;HTU21D;61301;51.956;5.876;2023-07-13T09:48:33;24.91;50.28
73112;HTU21D;61301;51.956;5.876;2023-07-13T09:51:03;24.57;50.75
73112;HTU21D;61301;51.956;5.876;2023-07-13T09:53:32;24.38;52.56
73112;HTU21D;61301;51.956;5.876;2023-07-13T09:55:58;24.45;52.48
73112;HTU21D;61301;51.956;5.876;2023-07-13T09:58:25;24.49;52.57
73112;HTU21D;61301;51.956;5.876;2023-07-13T10:00:58;24.53;52.31
73112;HTU21D;61301;51.956;5.876;2023-07-13T10:03:26;24.48;52.39
73112;HTU21D;61301;51.956;5.876;2023-07-13T10:05:52;24.43;53.33
73112;HTU21D;61301;51.956;5.876;2023-07-13T10:10:52;24.56;53.04
73112;HTU21D;61301;51.956;5.876;2023-07-13T10:13:29;24.53;52.96
73112;HTU21D;61301;51.956;5.876;2023-07-13T10:15:55;24.72;52.35
73112;HTU21D;61301;51.956;5.876;2023-07-13T10:18:21;25.08;52.58
73112;HTU21D;61301;51.956;5.876;2023-07-13T10:20:48;25.36;51.07
73112;HTU21D;61301;51.956;5.876;2023-07-13T10:23:15;25.68;49.85
73112;HTU21D;61301;51.956;5.876;2023-07-13T10:25:45;25.95;49.19
73112;HTU21D;61301;51.956;5.876;2023-07-13T10:30:57;26.26;46.84
73112;HTU21D;61301;51.956;5.876;2023-07-13T10:33:24;26.17;45.93
73112;HTU21D;61301;51.956;5.876;2023-07-13T10:35:51;25.99;46.28
73112;HTU21D;61301;51.956;5.876;2023-07-13T10:38:20;26.01;46.83
73112;HTU21D;61301;51.956;5.876;2023-07-13T10:43:50;25.81;47.25
73112;HTU21D;61301;51.956;5.876;2023-07-13T10:46:18;25.71;48.47
73112;HTU21D;61301;51.956;5.876;2023-07-13T10:48:45;25.44;50.48
73112;HTU21D;61301;51.956;5.876;2023-07-13T10:51:13;25.25;51.86
73112;HTU21D;61301;51.956;5.876;2023-07-13T10:53:40;25.06;51.25
73112;HTU21D;61301;51.956;5.876;2023-07-13T10:56:27;25.14;51.23
73112;HTU21D;61301;51.956;5.876;2023-07-13T10:59:09;25.46;51.41
73112;HTU21D;61301;51.956;5.876;2023-07-13T11:01:41;25.98;51.21
73112;HTU21D;61301;51.956;5.876;2023-07-13T11:04:12;26.22;51.56
73112;HTU21D;61301;51.956;5.876;2023-07-13T11:06:38;26.53;52.20
73112;HTU21D;61301;51.956;5.876;2023-07-13T11:11:51;26.23;51.46
73112;HTU21D;61301;51.956;5.876;2023-07-13T11:14:33;26.33;51.93
73112;HTU21D;61301;51.956;5.876;2023-07-13T11:17:24;26.35;50.99
73112;HTU21D;61301;51.956;5.876;2023-07-13T11:19:46;26.41;48.87
73112;HTU21D;61301;51.956;5.876;2023-07-13T11:22:16;26.39;48.73
73112;HTU21D;61301;51.956;5.876;2023-07-13T11:27:32;26.09;50.37
73112;HTU21D;61301;51.956;5.876;2023-07-13T11:30:06;25.98;49.98
73112;HTU21D;61301;51.956;5.876;2023-07-13T11:32:32;25.89;50.50
73112;HTU21D;61301;51.956;5.876;2023-07-13T11:34:58;25.82;50.37
73112;HTU21D;61301;51.956;5.876;2023-07-13T11:37:24;26.08;49.31
73112;HTU21D;61301;51.956;5.876;2023-07-13T11:39:51;26.11;49.58
73112;HTU21D;61301;51.956;5.876;2023-07-13T11:42:18;26.41;48.37
73112;HTU21D;61301;51.956;5.876;2023-07-13T11:44:46;26.60;48.60
73112;HTU21D;61301;51.956;5.876;2023-07-13T11:47:22;26.62;46.70
73112;HTU21D;61301;51.956;5.876;2023-07-13T11:49:49;26.75;45.83
73112;HTU21D;61301;51.956;5.876;2023-07-13T11:52:16;26.98;46.22
73112;HTU21D;61301;51.956;5.876;2023-07-13T11:54:49;26.99;44.56
73112;HTU21D;61301;51.956;5.876;2023-07-13T11:57:23;27.06;45.11
73112;HTU21D;61301;51.956;5.876;2023-07-13T11:59:50;26.94;45.37
73112;HTU21D;61301;51.956;5.876;2023-07-13T12:02:18;26.80;45.87
73112;HTU21D;61301;51.956;5.876;2023-07-13T12:04:49;26.58;46.54
73112;HTU21D;61301;51.956;5.876;2023-07-13T12:07:16;26.17;48.11
73112;HTU21D;61301;51.956;5.876;2023-07-13T12:09:43;25.93;48.54
73112;HTU21D;61301;51.956;5.876;2023-07-13T12:12:10;25.71;49.34
73112;HTU21D;61301;51.956;5.876;2023-07-13T12:14:36;25.71;49.40
73112;HTU21D;61301;51.956;5.876;2023-07-13T12:17:03;25.72;49.55
73112;HTU21D;61301;51.956;5.876;2023-07-13T12:19:30;25.73;50.47
73112;HTU21D;61301;51.956;5.876;2023-07-13T12:21:57;25.86;50.32
73112;HTU21D;61301;51.956;5.876;2023-07-13T12:24:23;26.09;50.31
73112;HTU21D;61301;51.956;5.876;2023-07-13T12:26:50;26.37;50.33
73112;HTU21D;61301;51.956;5.876;2023-07-13T12:29:17;26.66;49.90
73112;HTU21D;61301;51.956;5.876;2023-07-13T12:31:43;26.76;50.35
73112;HTU21D;61301;51.956;5.876;2023-07-13T12:34:11;27.07;49.07
73112;HTU21D;61301;51.956;5.876;2023-07-13T12:36:38;27.25;47.09
73112;HTU21D;61301;51.956;5.876;2023-07-13T12:39:19;27.24;46.14
73112;HTU21D;61301;51.956;5.876;2023-07-13T12:41:46;27.36;45.99
73112;HTU21D;61301;51.956;5.876;2023-07-13T12:44:13;27.52;44.92
73112;HTU21D;61301;51.956;5.876;2023-07-13T12:46:41;27.57;44.31
73112;HTU21D;61301;51.956;5.876;2023-07-13T12:49:17;27.39;43.96
73112;HTU21D;61301;51.956;5.876;2023-07-13T12:51:43;27.20;42.83
73112;HTU21D;61301;51.956;5.876;2023-07-13T12:54:13;26.90;43.63
73112;HTU21D;61301;51.956;5.876;2023-07-13T12:56:41;26.81;44.64
73112;HTU21D;61301;51.956;5.876;2023-07-13T12:59:08;26.80;45.70
73112;HTU21D;61301;51.956;5.876;2023-07-13T13:01:40;26.89;45.83
73112;HTU21D;61301;51.956;5.876;2023-07-13T13:04:08;27.05;45.57
73112;HTU21D;61301;51.956;5.876;2023-07-13T13:06:36;27.36;45.79
73112;HTU21D;61301;51.956;5.876;2023-07-13T13:09:03;27.72;44.67
73112;HTU21D;61301;51.956;5.876;2023-07-13T13:11:30;27.95;42.02
73112;HTU21D;61301;51.956;5.876;2023-07-13T13:13:57;27.91;40.61
73112;HTU21D;61301;51.956;5.876;2023-07-13T13:16:23;27.91;40.65
73112;HTU21D;61301;51.956;5.876;2023-07-13T13:18:50;27.75;40.26
73112;HTU21D;61301;51.956;5.876;2023-07-13T13:21:17;27.81;39.97
73112;HTU21D;61301;51.956;5.876;2023-07-13T13:23:47;27.99;39.68
73112;HTU21D;61301;51.956;5.876;2023-07-13T13:26:14;27.95;38.87
73112;HTU21D;61301;51.956;5.876;2023-07-13T13:28:41;27.90;36.97
73112;HTU21D;61301;51.956;5.876;2023-07-13T13:31:08;27.79;39.14
73112;HTU21D;61301;51.956;5.876;2023-07-13T13:33:35;27.63;39.74
73112;HTU21D;61301;51.956;5.876;2023-07-13T13:36:01;27.90;40.15
73112;HTU21D;61301;51.956;5.876;2023-07-13T13:38:27;27.82;38.16
73112;HTU21D;61301;51.956;5.876;2023-07-13T13:40:53;27.82;37.30
73112;HTU21D;61301;51.956;5.876;2023-07-13T13:43:23;27.59;37.56
73112;HTU21D;61301;51.956;5.876;2023-07-13T13:45:53;27.42;37.69
73112;HTU21D;61301;51.956;5.876;2023-07-13T13:48:28;27.52;38.28
73112;HTU21D;61301;51.956;5.876;2023-07-13T13:50:56;27.93;38.97
73112;HTU21D;61301;51.956;5.876;2023-07-13T13:53:22;28.04;38.15
73112;HTU21D;61301;51.956;5.876;2023-07-13T13:55:49;27.74;37.21
73112;HTU21D;61301;51.956;5.876;2023-07-13T13:58:15;27.58;38.20
73112;HTU21D;61301;51.956;5.876;2023-07-13T14:00:41;27.74;38.25
73112;HTU21D;61301;51.956;5.876;2023-07-13T14:03:14;27.68;36.43
73112;HTU21D;61301;51.956;5.876;2023-07-13T14:05:40;27.66;37.20
73112;HTU21D;61301;51.956;5.876;2023-07-13T14:08:11;27.94;37.51
73112;HTU21D;61301;51.956;5.876;2023-07-13T14:10:38;28.02;37.44
73112;HTU21D;61301;51.956;5.876;2023-07-13T14:13:04;27.72;37.27
73112;HTU21D;61301;51.956;5.876;2023-07-13T14:15:32;27.70;38.11
73112;HTU21D;61301;51.956;5.876;2023-07-13T14:17:57;27.72;38.55
73112;HTU21D;61301;51.956;5.876;2023-07-13T14:20:24;27.80;38.22
73112;HTU21D;61301;51.956;5.876;2023-07-13T14:22:51;27.70;38.17
73112;HTU21D;61301;51.956;5.876;2023-07-13T14:25:17;27.56;38.17
73112;HTU21D;61301;51.956;5.876;2023-07-13T14:27:44;27.58;37.95
73112;HTU21D;61301;51.956;5.876;2023-07-13T14:30:14;27.52;38.76
73112;HTU21D;61301;51.956;5.876;2023-07-13T14:32:40;27.51;38.35
73112;HTU21D;61301;51.956;5.876;2023-07-13T14:35:07;27.40;38.17
73112;HTU21D;61301;51.956;5.876;2023-07-13T14:37:33;27.38;38.15
73112;HTU21D;61301;51.956;5.876;2023-07-13T14:40:00;27.24;38.57
73112;HTU21D;61301;51.956;5.876;2023-07-13T14:42:25;27.31;39.04
73112;HTU21D;61301;51.956;5.876;2023-07-13T14:44:51;27.29;37.02
73112;HTU21D;61301;51.956;5.876;2023-07-13T14:47:17;27.21;38.43
73112;HTU21D;61301;51.956;5.876;2023-07-13T14:49:43;27.14;39.41
73112;HTU21D;61301;51.956;5.876;2023-07-13T14:52:17;27.19;39.81
73112;HTU21D;61301;51.956;5.876;2023-07-13T14:54:43;27.19;39.26
73112;HTU21D;61301;51.956;5.876;2023-07-13T14:57:10;27.20;39.58
73112;HTU21D;61301;51.956;5.876;2023-07-13T14:59:37;27.26;39.65
73112;HTU21D;61301;51.956;5.876;2023-07-13T15:02:08;27.26;40.00
73112;HTU21D;61301;51.956;5.876;2023-07-13T15:04:39;27.37;39.72
73112;HTU21D;61301;51.956;5.876;2023-07-13T15:07:05;27.41;38.57
73112;HTU21D;61301;51.956;5.876;2023-07-13T15:09:30;27.37;37.79
73112;HTU21D;61301;51.956;5.876;2023-07-13T15:11:57;27.04;38.78
73112;HTU21D;61301;51.956;5.876;2023-07-13T15:14:23;26.93;39.23
73112;HTU21D;61301;51.956;5.876;2023-07-13T15:16:51;26.93;38.83
73112;HTU21D;61301;51.956;5.876;2023-07-13T15:19:18;26.91;38.30
73112;HTU21D;61301;51.956;5.876;2023-07-13T15:21:44;26.87;39.06
73112;HTU21D;61301;51.956;5.876;2023-07-13T15:24:10;26.87;39.23
73112;HTU21D;61301;51.956;5.876;2023-07-13T15:26:36;26.70;38.26
73112;HTU21D;61301;51.956;5.876;2023-07-13T15:29:02;26.63;39.36
73112;HTU21D;61301;51.956;5.876;2023-07-13T15:31:28;26.53;39.24
73112;HTU21D;61301;51.956;5.876;2023-07-13T15:33:55;26.41;39.72
73112;HTU21D;61301;51.956;5.876;2023-07-13T15:36:23;26.41;40.22
73112;HTU21D;61301;51.956;5.876;2023-07-13T15:38:50;26.46;41.00
73112;HTU21D;61301;51.956;5.876;2023-07-13T15:43:42;26.60;40.73
73112;HTU21D;61301;51.956;5.876;2023-07-13T15:46:09;26.64;40.84
73112;HTU21D;61301;51.956;5.876;2023-07-13T15:48:35;26.72;40.66
73112;HTU21D;61301;51.956;5.876;2023-07-13T15:51:02;26.75;40.63
73112;HTU21D;61301;51.956;5.876;2023-07-13T15:53:28;26.78;41.21